sensor_id;sensor_type;location;lat;lon;timestamp;P1;durP1;ratioP1;P2;durP2;ratioP2
3046;SDS011;1533;44.816;20.420;2023-05-29T00:00:39;18.50;;;15.30;;
3046;SDS011;1533;44.816;20.420;2023-05-29T00:03:13;19.67;;;15.87;;
3046;SDS011;1533;44.816;20.420;2023-05-29T00:05:40;19.13;;;16.37;;
3046;SDS011;1533;44.816;20.420;2023-05-29T00:08:11;22.63;;;15.80;;
3046;SDS011;1533;44.816;20.420;2023-05-29T00:10:40;21.80;;;16.60;;
3046;SDS011;1533;44.816;20.420;2023-05-29T00:13:07;20.33;;;15.80;;
3046;SDS011;1533;44.816;20.420;2023-05-29T00:15:37;16.77;;;12.97;;
3046;SDS011;1533;44.816;20.420;2023-05-29T00:18:04;17.03;;;10.90;;
3046;SDS011;1533;44.816;20.420;2023-05-29T00:20:32;18.90;;;13.03;;
3046;SDS011;1533;44.816;20.420;2023-05-29T00:23:00;14.97;;;12.73;;
3046;SDS011;1533;44.816;20.420;2023-05-29T00:25:31;14.43;;;12.10;;
3046;SDS011;1533;44.816;20.420;2023-05-29T00:27:59;12.83;;;10.00;;
3046;SDS011;1533;44.816;20.420;2023-05-29T00:30:26;12.80;;;10.97;;
3046;SDS011;1533;44.816;20.420;2023-05-29T00:32:54;14.47;;;12.07;;
3046;SDS011;1533;44.816;20.420;2023-05-29T00:35:21;13.53;;;11.57;;
3046;SDS011;1533;44.816;20.420;2023-05-29T00:37:48;13.03;;;10.83;;
3046;SDS011;1533;44.816;20.420;2023-05-29T00:40:15;17.30;;;11.37;;
3046;SDS011;1533;44.816;20.420;2023-05-29T00:42:42;12.50;;;11.20;;
3046;SDS011;1533;44.816;20.420;2023-05-29T00:45:10;12.77;;;11.47;;
3046;SDS011;1533;44.816;20.420;2023-05-29T00:47:43;13.60;;;10.30;;
3046;SDS011;1533;44.816;20.420;2023-05-29T00:50:14;12.60;;;11.10;;
3046;SDS011;1533;44.816;20.420;2023-05-29T00:52:41;12.80;;;10.43;;
3046;SDS011;1533;44.816;20.420;2023-05-29T00:55:09;12.20;;;10.00;;
3046;SDS011;1533;44.816;20.420;2023-05-29T00:57:37;13.30;;;9.70;;
3046;SDS011;1533;44.816;20.420;2023-05-29T01:00:04;15.20;;;9.67;;
3046;SDS011;1533;44.816;20.420;2023-05-29T01:02:35;12.40;;;10.40;;
3046;SDS011;1533;44.816;20.420;2023-05-29T01:05:02;13.20;;;9.40;;
3046;SDS011;1533;44.816;20.420;2023-05-29T01:07:29;15.43;;;9.97;;
3046;SDS011;1533;44.816;20.420;2023-05-29T01:09:57;12.73;;;8.90;;
3046;SDS011;1533;44.816;20.420;2023-05-29T01:17:32;12.93;;;10.53;;
3046;SDS011;1533;44.816;20.420;2023-05-29T01:25:11;21.60;;;13.23;;
3046;SDS011;1533;44.816;20.420;2023-05-29T01:27:43;19.83;;;15.50;;
3046;SDS011;1533;44.816;20.420;2023-05-29T01:30:12;16.67;;;13.53;;
3046;SDS011;1533;44.816;20.420;2023-05-29T01:32:43;16.33;;;13.47;;
3046;SDS011;1533;44.816;20.420;2023-05-29T01:35:10;19.97;;;14.97;;
3046;SDS011;1533;44.816;20.420;2023-05-29T01:37:36;17.63;;;14.03;;
3046;SDS011;1533;44.816;20.420;2023-05-29T01:40:05;20.10;;;14.17;;
3046;SDS011;1533;44.816;20.420;2023-05-29T01:42:34;24.07;;;15.50;;
3046;SDS011;1533;44.816;20.420;2023-05-29T01:45:02;18.73;;;14.70;;
3046;SDS011;1533;44.816;20.420;2023-05-29T01:47:32;17.13;;;13.87;;
3046;SDS011;1533;44.816;20.420;2023-05-29T01:50:03;19.57;;;15.27;;
3046;SDS011;1533;44.816;20.420;2023-05-29T01:52:31;19.00;;;15.53;;
3046;SDS011;1533;44.816;20.420;2023-05-29T01:54:58;19.90;;;15.30;;
3046;SDS011;1533;44.816;20.420;2023-05-29T01:57:24;21.13;;;15.57;;
3046;SDS011;1533;44.816;20.420;2023-05-29T01:59:56;18.93;;;16.03;;
3046;SDS011;1533;44.816;20.420;2023-05-29T02:02:23;27.27;;;18.50;;
3046;SDS011;1533;44.816;20.420;2023-05-29T02:04:50;22.07;;;18.23;;
3046;SDS011;1533;44.816;20.420;2023-05-29T02:07:25;21.50;;;17.13;;
3046;SDS011;1533;44.816;20.420;2023-05-29T02:09:54;23.00;;;17.17;;
3046;SDS011;1533;44.816;20.420;2023-05-29T02:12:23;25.20;;;17.60;;
3046;SDS011;1533;44.816;20.420;2023-05-29T02:14:52;23.30;;;18.00;;
3046;SDS011;1533;44.816;20.420;2023-05-29T02:17:19;20.17;;;17.27;;
3046;SDS011;1533;44.816;20.420;2023-05-29T02:19:45;26.50;;;17.93;;
3046;SDS011;1533;44.816;20.420;2023-05-29T02:22:21;26.17;;;18.53;;
3046;SDS011;1533;44.816;20.420;2023-05-29T02:24:48;23.67;;;18.00;;
3046;SDS011;1533;44.816;20.420;2023-05-29T02:27:16;22.60;;;17.77;;
3046;SDS011;1533;44.816;20.420;2023-05-29T02:29:42;26.93;;;19.30;;
3046;SDS011;1533;44.816;20.420;2023-05-29T02:32:16;21.93;;;17.80;;
3046;SDS011;1533;44.816;20.420;2023-05-29T02:34:43;25.30;;;17.70;;
3046;SDS011;1533;44.816;20.420;2023-05-29T02:37:12;24.50;;;19.60;;
3046;SDS011;1533;44.816;20.420;2023-05-29T02:39:39;20.97;;;16.70;;
3046;SDS011;1533;44.816;20.420;2023-05-29T02:42:06;21.27;;;18.40;;
3046;SDS011;1533;44.816;20.420;2023-05-29T02:44:33;23.87;;;17.97;;
3046;SDS011;1533;44.816;20.420;2023-05-29T02:47:02;22.27;;;18.03;;
3046;SDS011;1533;44.816;20.420;2023-05-29T02:49:32;21.67;;;16.23;;
3046;SDS011;1533;44.816;20.420;2023-05-29T02:51:58;22.07;;;17.20;;
3046;SDS011;1533;44.816;20.420;2023-05-29T02:54:25;18.77;;;16.30;;
3046;SDS011;1533;44.816;20.420;2023-05-29T02:56:52;21.80;;;17.00;;
3046;SDS011;1533;44.816;20.420;2023-05-29T02:59:19;27.77;;;19.10;;
3046;SDS011;1533;44.816;20.420;2023-05-29T03:01:50;28.03;;;21.10;;
3046;SDS011;1533;44.816;20.420;2023-05-29T03:04:18;28.00;;;20.50;;
3046;SDS011;1533;44.816;20.420;2023-05-29T03:06:44;28.23;;;22.20;;
3046;SDS011;1533;44.816;20.420;2023-05-29T03:09:12;29.57;;;21.20;;
3046;SDS011;1533;44.816;20.420;2023-05-29T03:11:38;26.87;;;22.17;;
3046;SDS011;1533;44.816;20.420;2023-05-29T03:14:06;28.80;;;22.10;;
3046;SDS011;1533;44.816;20.420;2023-05-29T03:16:33;26.57;;;22.37;;
3046;SDS011;1533;44.816;20.420;2023-05-29T03:19:02;29.13;;;22.83;;
3046;SDS011;1533;44.816;20.420;2023-05-29T03:21:31;30.17;;;22.23;;
3046;SDS011;1533;44.816;20.420;2023-05-29T03:24:00;23.37;;;19.03;;
3046;SDS011;1533;44.816;20.420;2023-05-29T03:26:28;24.67;;;20.10;;
3046;SDS011;1533;44.816;20.420;2023-05-29T03:28:57;20.40;;;16.40;;
3046;SDS011;1533;44.816;20.420;2023-05-29T03:31:25;24.40;;;17.70;;
3046;SDS011;1533;44.816;20.420;2023-05-29T03:33:55;24.50;;;18.57;;
3046;SDS011;1533;44.816;20.420;2023-05-29T03:36:29;25.77;;;17.73;;
3046;SDS011;1533;44.816;20.420;2023-05-29T03:38:57;30.93;;;18.00;;
3046;SDS011;1533;44.816;20.420;2023-05-29T03:41:29;21.53;;;15.40;;
3046;SDS011;1533;44.816;20.420;2023-05-29T03:43:55;21.10;;;16.13;;
3046;SDS011;1533;44.816;20.420;2023-05-29T03:46:23;23.87;;;16.57;;
3046;SDS011;1533;44.816;20.420;2023-05-29T03:48:51;18.90;;;14.60;;
3046;SDS011;1533;44.816;20.420;2023-05-29T03:51:18;23.10;;;14.80;;
3046;SDS011;1533;44.816;20.420;2023-05-29T03:53:46;19.40;;;15.27;;
3046;SDS011;1533;44.816;20.420;2023-05-29T03:56:14;18.40;;;14.97;;
3046;SDS011;1533;44.816;20.420;2023-05-29T03:58:41;19.93;;;14.30;;
3046;SDS011;1533;44.816;20.420;2023-05-29T21:11:33;9.27;;;6.27;;
3046;SDS011;1533;44.816;20.420;2023-05-29T21:52:42;10.37;;;6.57;;
3046;SDS011;1533;44.816;20.420;2023-05-29T21:55:33;9.83;;;7.20;;
3046;SDS011;1533;44.816;20.420;2023-05-29T21:58:04;7.90;;;7.10;;
3046;SDS011;1533;44.816;20.420;2023-05-29T22:01:16;8.47;;;6.67;;
3046;SDS011;1533;44.816;20.420;2023-05-29T22:07:01;8.30;;;6.40;;
3046;SDS011;1533;44.816;20.420;2023-05-29T22:09:28;10.43;;;6.33;;
3046;SDS011;1533;44.816;20.420;2023-05-29T22:11:55;9.23;;;6.50;;
3046;SDS011;1533;44.816;20.420;2023-05-29T22:14:24;9.97;;;6.87;;
3046;SDS011;1533;44.816;20.420;2023-05-29T22:16:55;7.80;;;6.53;;
3046;SDS011;1533;44.816;20.420;2023-05-29T22:19:24;7.97;;;6.67;;
3046;SDS011;1533;44.816;20.420;2023-05-29T22:21:54;8.87;;;6.53;;
3046;SDS011;1533;44.816;20.420;2023-05-29T22:24:20;8.47;;;6.87;;
3046;SDS011;1533;44.816;20.420;2023-05-29T22:26:49;8.07;;;6.87;;
3046;SDS011;1533;44.816;20.420;2023-05-29T22:29:15;10.30;;;7.43;;
3046;SDS011;1533;44.816;20.420;2023-05-29T22:31:47;9.23;;;7.27;;
3046;SDS011;1533;44.816;20.420;2023-05-29T22:34:15;10.43;;;7.40;;
3046;SDS011;1533;44.816;20.420;2023-05-29T22:36:45;8.50;;;6.60;;
3046;SDS011;1533;44.816;20.420;2023-05-29T22:39:13;13.80;;;7.50;;
3046;SDS011;1533;44.816;20.420;2023-05-29T22:41:40;10.90;;;7.80;;
3046;SDS011;1533;44.816;20.420;2023-05-29T22:44:07;9.80;;;8.03;;
3046;SDS011;1533;44.816;20.420;2023-05-29T22:46:43;10.07;;;8.10;;
3046;SDS011;1533;44.816;20.420;2023-05-29T22:49:09;8.37;;;6.77;;
3046;SDS011;1533;44.816;20.420;2023-05-29T22:51:37;8.97;;;7.87;;
3046;SDS011;1533;44.816;20.420;2023-05-29T22:54:04;9.27;;;8.00;;
3046;SDS011;1533;44.816;20.420;2023-05-29T22:56:34;13.23;;;7.77;;
3046;SDS011;1533;44.816;20.420;2023-05-29T23:14:04;13.73;;;10.27;;
3046;SDS011;1533;44.816;20.420;2023-05-29T23:16:31;12.73;;;9.40;;
3046;SDS011;1533;44.816;20.420;2023-05-29T23:18:59;13.47;;;9.80;;
3046;SDS011;1533;44.816;20.420;2023-05-29T23:21:27;13.13;;;10.30;;
3046;SDS011;1533;44.816;20.420;2023-05-29T23:23:57;11.50;;;9.37;;
3046;SDS011;1533;44.816;20.420;2023-05-29T23:26:26;12.30;;;10.17;;
3046;SDS011;1533;44.816;20.420;2023-05-29T23:28:53;15.37;;;10.23;;
3046;SDS011;1533;44.816;20.420;2023-05-29T23:31:23;15.63;;;12.03;;
3046;SDS011;1533;44.816;20.420;2023-05-29T23:34:06;15.60;;;12.97;;
3046;SDS011;1533;44.816;20.420;2023-05-29T23:36:33;17.50;;;14.00;;
3046;SDS011;1533;44.816;20.420;2023-05-29T23:39:04;18.80;;;15.30;;
3046;SDS011;1533;44.816;20.420;2023-05-29T23:41:31;22.47;;;19.97;;
3046;SDS011;1533;44.816;20.420;2023-05-29T23:43:58;19.30;;;15.97;;
3046;SDS011;1533;44.816;20.420;2023-05-29T23:46:27;20.30;;;17.00;;
3046;SDS011;1533;44.816;20.420;2023-05-29T23:48:54;21.37;;;17.07;;
3046;SDS011;1533;44.816;20.420;2023-05-29T23:51:21;20.73;;;17.00;;
3046;SDS011;1533;44.816;20.420;2023-05-29T23:53:47;30.07;;;19.07;;
3046;SDS011;1533;44.816;20.420;2023-05-29T23:56:15;28.33;;;16.03;;
3046;SDS011;1533;44.816;20.420;2023-05-29T23:58:50;20.43;;;16.90;;
